sensor_id;sensor_type;location;lat;lon;timestamp;P1;durP1;ratioP1;P2;durP2;ratioP2
83182;SDS011;73077;49.898;16.450;2024-03-23T00:51:36;3.17;;;1.90;;
83182;SDS011;73077;49.898;16.450;2024-03-23T00:54:02;4.07;;;2.38;;
83182;SDS011;73077;49.898;16.450;2024-03-23T00:56:29;3.00;;;2.05;;
83182;SDS011;73077;49.898;16.450;2024-03-23T00:58:55;2.38;;;2.05;;
83182;SDS011;73077;49.898;16.450;2024-03-23T01:01:23;8.23;;;1.85;;
83182;SDS011;73077;49.898;16.450;2024-03-23T01:03:48;5.05;;;2.17;;
83182;SDS011;73077;49.898;16.450;2024-03-23T01:06:14;2.40;;;1.77;;
83182;SDS011;73077;49.898;16.450;2024-03-23T01:08:43;3.33;;;1.92;;
83182;SDS011;73077;49.898;16.450;2024-03-23T01:11:10;5.65;;;2.22;;
83182;SDS011;73077;49.898;16.450;2024-03-23T01:13:35;4.85;;;1.85;;
83182;SDS011;73077;49.898;16.450;2024-03-23T01:16:01;5.05;;;1.83;;
83182;SDS011;73077;49.898;16.450;2024-03-23T01:18:27;5.10;;;2.25;;
83182;SDS011;73077;49.898;16.450;2024-03-23T01:20:53;4.75;;;2.22;;
83182;SDS011;73077;49.898;16.450;2024-03-23T01:23:18;4.43;;;2.13;;
83182;SDS011;73077;49.898;16.450;2024-03-23T01:25:51;2.88;;;1.75;;
83182;SDS011;73077;49.898;16.450;2024-03-23T01:28:17;2.78;;;1.67;;
83182;SDS011;73077;49.898;16.450;2024-03-23T01:30:43;2.20;;;1.27;;
83182;SDS011;73077;49.898;16.450;2024-03-23T01:33:08;2.78;;;1.60;;
83182;SDS011;73077;49.898;16.450;2024-03-23T01:35:34;4.38;;;2.00;;
83182;SDS011;73077;49.898;16.450;2024-03-23T01:38:00;1.42;;;1.25;;
83182;SDS011;73077;49.898;16.450;2024-03-23T01:40:25;2.95;;;1.67;;
83182;SDS011;73077;49.898;16.450;2024-03-23T01:42:55;3.45;;;1.90;;
83182;SDS011;73077;49.898;16.450;2024-03-23T01:45:22;2.45;;;1.70;;
83182;SDS011;73077;49.898;16.450;2024-03-23T01:47:49;3.38;;;2.20;;
83182;SDS011;73077;49.898;16.450;2024-03-23T01:50:18;3.95;;;1.52;;
83182;SDS011;73077;49.898;16.450;2024-03-23T01:52:47;4.60;;;2.45;;
83182;SDS011;73077;49.898;16.450;2024-03-23T01:55:13;3.78;;;2.40;;
83182;SDS011;73077;49.898;16.450;2024-03-23T01:57:39;3.53;;;2.17;;
83182;SDS011;73077;49.898;16.450;2024-03-23T02:00:05;4.25;;;1.95;;
83182;SDS011;73077;49.898;16.450;2024-03-23T02:02:41;3.83;;;2.58;;
83182;SDS011;73077;49.898;16.450;2024-03-23T02:05:08;5.43;;;1.65;;
83182;SDS011;73077;49.898;16.450;2024-03-23T02:07:34;4.55;;;1.77;;
83182;SDS011;73077;49.898;16.450;2024-03-23T02:10:01;4.03;;;2.08;;
83182;SDS011;73077;49.898;16.450;2024-03-23T02:12:27;3.33;;;2.05;;
83182;SDS011;73077;49.898;16.450;2024-03-23T02:14:52;4.50;;;1.95;;
83182;SDS011;73077;49.898;16.450;2024-03-23T02:17:18;4.32;;;2.17;;
83182;SDS011;73077;49.898;16.450;2024-03-23T02:19:44;2.83;;;1.55;;
83182;SDS011;73077;49.898;16.450;2024-03-23T02:22:11;4.18;;;2.88;;
83182;SDS011;73077;49.898;16.450;2024-03-23T02:24:37;4.60;;;2.03;;
83182;SDS011;73077;49.898;16.450;2024-03-23T02:27:04;3.85;;;1.65;;
83182;SDS011;73077;49.898;16.450;2024-03-23T02:29:30;4.45;;;2.40;;
83182;SDS011;73077;49.898;16.450;2024-03-23T02:31:57;2.55;;;1.80;;
83182;SDS011;73077;49.898;16.450;2024-03-23T02:34:24;2.47;;;1.45;;
83182;SDS011;73077;49.898;16.450;2024-03-23T02:36:50;3.83;;;1.90;;
83182;SDS011;73077;49.898;16.450;2024-03-23T02:39:15;3.22;;;1.90;;
83182;SDS011;73077;49.898;16.450;2024-03-23T02:41:41;2.72;;;2.30;;
83182;SDS011;73077;49.898;16.450;2024-03-23T02:44:07;3.30;;;1.60;;
83182;SDS011;73077;49.898;16.450;2024-03-23T02:46:33;2.95;;;2.42;;
83182;SDS011;73077;49.898;16.450;2024-03-23T02:48:58;3.40;;;1.45;;
83182;SDS011;73077;49.898;16.450;2024-03-23T02:51:25;4.35;;;1.50;;
83182;SDS011;73077;49.898;16.450;2024-03-23T02:53:51;2.95;;;1.45;;
83182;SDS011;73077;49.898;16.450;2024-03-23T02:56:16;2.35;;;1.45;;
83182;SDS011;73077;49.898;16.450;2024-03-23T02:58:42;2.60;;;1.63;;
83182;SDS011;73077;49.898;16.450;2024-03-23T03:01:09;3.03;;;1.23;;
83182;SDS011;73077;49.898;16.450;2024-03-23T03:03:35;2.85;;;1.52;;
83182;SDS011;73077;49.898;16.450;2024-03-23T03:06:01;2.10;;;1.27;;
83182;SDS011;73077;49.898;16.450;2024-03-23T03:08:27;4.15;;;2.50;;
83182;SDS011;73077;49.898;16.450;2024-03-23T03:10:52;1.85;;;1.58;;
83182;SDS011;73077;49.898;16.450;2024-03-23T03:13:18;1.98;;;1.35;;
83182;SDS011;73077;49.898;16.450;2024-03-23T03:15:44;1.65;;;1.15;;
83182;SDS011;73077;49.898;16.450;2024-03-23T03:18:11;3.78;;;1.90;;
83182;SDS011;73077;49.898;16.450;2024-03-23T03:20:40;3.38;;;1.55;;
83182;SDS011;73077;49.898;16.450;2024-03-23T03:23:08;2.47;;;1.92;;
83182;SDS011;73077;49.898;16.450;2024-03-23T03:28:00;2.80;;;2.00;;
83182;SDS011;73077;49.898;16.450;2024-03-23T03:30:28;2.50;;;1.50;;
83182;SDS011;73077;49.898;16.450;2024-03-23T03:32:54;2.78;;;1.33;;
83182;SDS011;73077;49.898;16.450;2024-03-23T03:35:20;2.03;;;1.58;;
83182;SDS011;73077;49.898;16.450;2024-03-23T03:37:46;5.95;;;1.45;;
83182;SDS011;73077;49.898;16.450;2024-03-23T03:40:12;1.50;;;1.35;;
83182;SDS011;73077;49.898;16.450;2024-03-23T03:42:40;4.93;;;1.30;;
83182;SDS011;73077;49.898;16.450;2024-03-23T03:45:06;4.30;;;1.90;;
83182;SDS011;73077;49.898;16.450;2024-03-23T03:47:32;2.90;;;2.15;;
83182;SDS011;73077;49.898;16.450;2024-03-23T03:50:00;3.35;;;2.03;;
83182;SDS011;73077;49.898;16.450;2024-03-23T03:52:25;2.75;;;1.55;;
83182;SDS011;73077;49.898;16.450;2024-03-23T03:54:51;1.83;;;1.23;;
83182;SDS011;73077;49.898;16.450;2024-03-23T03:57:17;6.40;;;1.00;;
83182;SDS011;73077;49.898;16.450;2024-03-23T03:59:42;2.28;;;1.85;;
83182;SDS011;73077;49.898;16.450;2024-03-23T04:02:08;3.33;;;1.88;;
83182;SDS011;73077;49.898;16.450;2024-03-23T04:04:33;3.15;;;2.05;;
83182;SDS011;73077;49.898;16.450;2024-03-23T04:06:59;2.88;;;1.65;;
83182;SDS011;73077;49.898;16.450;2024-03-23T04:09:26;1.17;;;0.93;;
83182;SDS011;73077;49.898;16.450;2024-03-23T04:11:52;3.20;;;2.38;;
83182;SDS011;73077;49.898;16.450;2024-03-23T04:14:17;3.03;;;1.20;;
83182;SDS011;73077;49.898;16.450;2024-03-23T04:16:43;4.03;;;2.17;;
83182;SDS011;73077;49.898;16.450;2024-03-23T04:19:08;2.55;;;1.55;;
83182;SDS011;73077;49.898;16.450;2024-03-23T04:21:35;4.43;;;1.98;;
83182;SDS011;73077;49.898;16.450;2024-03-23T04:24:02;3.70;;;1.60;;
83182;SDS011;73077;49.898;16.450;2024-03-23T04:26:28;2.50;;;1.40;;
83182;SDS011;73077;49.898;16.450;2024-03-23T04:28:54;2.22;;;1.55;;
83182;SDS011;73077;49.898;16.450;2024-03-23T04:31:20;2.50;;;1.35;;
83182;SDS011;73077;49.898;16.450;2024-03-23T04:33:45;2.35;;;1.27;;
83182;SDS011;73077;49.898;16.450;2024-03-23T04:36:11;2.47;;;1.70;;
83182;SDS011;73077;49.898;16.450;2024-03-23T04:38:37;4.50;;;1.45;;
83182;SDS011;73077;49.898;16.450;2024-03-23T04:41:02;3.60;;;1.55;;
83182;SDS011;73077;49.898;16.450;2024-03-23T04:43:29;2.90;;;1.80;;
83182;SDS011;73077;49.898;16.450;2024-03-23T04:45:55;4.45;;;2.15;;
83182;SDS011;73077;49.898;16.450;2024-03-23T04:48:22;3.13;;;1.73;;
83182;SDS011;73077;49.898;16.450;2024-03-23T04:50:49;2.15;;;1.85;;
83182;SDS011;73077;49.898;16.450;2024-03-23T04:53:15;1.83;;;1.25;;
83182;SDS011;73077;49.898;16.450;2024-03-23T04:55:42;2.17;;;1.73;;
83182;SDS011;73077;49.898;16.450;2024-03-23T04:58:08;2.90;;;1.98;;
83182;SDS011;73077;49.898;16.450;2024-03-23T05:00:33;2.03;;;1.55;;
83182;SDS011;73077;49.898;16.450;2024-03-23T05:02:59;2.25;;;0.93;;
83182;SDS011;73077;49.898;16.450;2024-03-23T05:05:25;3.25;;;1.67;;
83182;SDS011;73077;49.898;16.450;2024-03-23T05:07:51;2.35;;;1.17;;
83182;SDS011;73077;49.898;16.450;2024-03-23T05:10:16;1.65;;;1.08;;
83182;SDS011;73077;49.898;16.450;2024-03-23T05:12:42;2.13;;;1.40;;
83182;SDS011;73077;49.898;16.450;2024-03-23T05:15:10;2.08;;;1.13;;
83182;SDS011;73077;49.898;16.450;2024-03-23T05:17:35;2.33;;;1.05;;
83182;SDS011;73077;49.898;16.450;2024-03-23T05:20:03;1.98;;;1.23;;
83182;SDS011;73077;49.898;16.450;2024-03-23T05:22:30;2.35;;;1.33;;
83182;SDS011;73077;49.898;16.450;2024-03-23T05:24:56;2.90;;;1.10;;
83182;SDS011;73077;49.898;16.450;2024-03-23T05:27:22;2.00;;;1.08;;
83182;SDS011;73077;49.898;16.450;2024-03-23T05:29:49;2.15;;;1.17;;
83182;SDS011;73077;49.898;16.450;2024-03-23T05:32:14;3.35;;;1.83;;
83182;SDS011;73077;49.898;16.450;2024-03-23T05:34:40;1.73;;;0.95;;
83182;SDS011;73077;49.898;16.450;2024-03-23T05:37:07;1.10;;;1.00;;
83182;SDS011;73077;49.898;16.450;2024-03-23T05:39:32;2.03;;;1.65;;
83182;SDS011;73077;49.898;16.450;2024-03-23T05:41:58;2.33;;;1.35;;
83182;SDS011;73077;49.898;16.450;2024-03-23T05:44:24;2.15;;;1.27;;
83182;SDS011;73077;49.898;16.450;2024-03-23T05:46:49;1.58;;;1.25;;
83182;SDS011;73077;49.898;16.450;2024-03-23T05:49:15;1.35;;;1.25;;
83182;SDS011;73077;49.898;16.450;2024-03-23T05:51:42;2.60;;;0.68;;
83182;SDS011;73077;49.898;16.450;2024-03-23T05:54:07;2.53;;;1.20;;
83182;SDS011;73077;49.898;16.450;2024-03-23T05:56:33;1.30;;;0.77;;
83182;SDS011;73077;49.898;16.450;2024-03-23T05:58:58;2.25;;;1.52;;
83182;SDS011;73077;49.898;16.450;2024-03-23T06:01:24;0.88;;;0.73;;
83182;SDS011;73077;49.898;16.450;2024-03-23T06:03:54;2.60;;;1.45;;
83182;SDS011;73077;49.898;16.450;2024-03-23T06:06:19;2.45;;;1.15;;
83182;SDS011;73077;49.898;16.450;2024-03-23T06:08:46;2.70;;;1.63;;
83182;SDS011;73077;49.898;16.450;2024-03-23T06:11:12;1.50;;;0.95;;
83182;SDS011;73077;49.898;16.450;2024-03-23T06:13:38;2.97;;;1.45;;
83182;SDS011;73077;49.898;16.450;2024-03-23T06:16:03;1.63;;;0.82;;
83182;SDS011;73077;49.898;16.450;2024-03-23T06:18:30;1.52;;;1.35;;
83182;SDS011;73077;49.898;16.450;2024-03-23T06:20:56;1.30;;;1.02;;
83182;SDS011;73077;49.898;16.450;2024-03-23T06:23:22;2.20;;;0.65;;
83182;SDS011;73077;49.898;16.450;2024-03-23T06:25:48;1.60;;;1.00;;
83182;SDS011;73077;49.898;16.450;2024-03-23T06:28:14;1.83;;;1.10;;
83182;SDS011;73077;49.898;16.450;2024-03-23T06:30:41;1.98;;;1.33;;
83182;SDS011;73077;49.898;16.450;2024-03-23T06:33:08;1.88;;;1.02;;
83182;SDS011;73077;49.898;16.450;2024-03-23T06:35:34;1.83;;;1.10;;
83182;SDS011;73077;49.898;16.450;2024-03-23T06:37:59;2.35;;;1.27;;
83182;SDS011;73077;49.898;16.450;2024-03-23T06:40:25;1.65;;;0.80;;
83182;SDS011;73077;49.898;16.450;2024-03-23T06:42:50;0.85;;;0.55;;
83182;SDS011;73077;49.898;16.450;2024-03-23T06:45:16;2.38;;;0.98;;
83182;SDS011;73077;49.898;16.450;2024-03-23T06:47:48;2.28;;;1.20;;
83182;SDS011;73077;49.898;16.450;2024-03-23T06:50:15;1.63;;;1.10;;
83182;SDS011;73077;49.898;16.450;2024-03-23T06:52:41;1.85;;;1.40;;
83182;SDS011;73077;49.898;16.450;2024-03-23T06:55:07;2.88;;;1.13;;
83182;SDS011;73077;49.898;16.450;2024-03-23T06:57:33;1.52;;;0.80;;
83182;SDS011;73077;49.898;16.450;2024-03-23T06:59:59;1.85;;;1.10;;
83182;SDS011;73077;49.898;16.450;2024-03-23T07:02:25;3.28;;;0.93;;
83182;SDS011;73077;49.898;16.450;2024-03-23T07:04:51;1.35;;;0.80;;
83182;SDS011;73077;49.898;16.450;2024-03-23T07:07:16;1.63;;;1.42;;
83182;SDS011;73077;49.898;16.450;2024-03-23T07:09:42;2.38;;;0.88;;
83182;SDS011;73077;49.898;16.450;2024-03-23T07:12:08;1.98;;;0.85;;
83182;SDS011;73077;49.898;16.450;2024-03-23T07:14:34;2.17;;;0.90;;
83182;SDS011;73077;49.898;16.450;2024-03-23T07:16:59;1.27;;;1.02;;
83182;SDS011;73077;49.898;16.450;2024-03-23T07:19:25;1.88;;;1.30;;
83182;SDS011;73077;49.898;16.450;2024-03-23T07:21:52;3.10;;;1.02;;
83182;SDS011;73077;49.898;16.450;2024-03-23T07:24:17;2.35;;;1.35;;
83182;SDS011;73077;49.898;16.450;2024-03-23T07:26:43;1.88;;;0.93;;
83182;SDS011;73077;49.898;16.450;2024-03-23T07:29:09;3.15;;;1.45;;
83182;SDS011;73077;49.898;16.450;2024-03-23T07:31:34;1.58;;;0.80;;
83182;SDS011;73077;49.898;16.450;2024-03-23T07:34:00;1.55;;;1.10;;
83182;SDS011;73077;49.898;16.450;2024-03-23T07:36:26;2.97;;;1.25;;
83182;SDS011;73077;49.898;16.450;2024-03-23T07:38:51;2.15;;;1.30;;
83182;SDS011;73077;49.898;16.450;2024-03-23T07:41:18;2.15;;;1.33;;
83182;SDS011;73077;49.898;16.450;2024-03-23T07:43:44;2.25;;;1.63;;
83182;SDS011;73077;49.898;16.450;2024-03-23T07:46:11;2.90;;;1.65;;
83182;SDS011;73077;49.898;16.450;2024-03-23T07:48:39;2.10;;;1.60;;
83182;SDS011;73077;49.898;16.450;2024-03-23T07:51:08;2.33;;;1.40;;
83182;SDS011;73077;49.898;16.450;2024-03-23T07:53:35;4.13;;;1.05;;
83182;SDS011;73077;49.898;16.450;2024-03-23T07:56:06;1.38;;;0.45;;
83182;SDS011;73077;49.898;16.450;2024-03-23T07:58:33;1.15;;;1.05;;
83182;SDS011;73077;49.898;16.450;2024-03-23T08:03:34;1.15;;;0.73;;
83182;SDS011;73077;49.898;16.450;2024-03-23T08:08:38;1.77;;;0.85;;
83182;SDS011;73077;49.898;16.450;2024-03-23T08:11:04;1.02;;;0.93;;
83182;SDS011;73077;49.898;16.450;2024-03-23T08:13:31;1.25;;;0.68;;
83182;SDS011;73077;49.898;16.450;2024-03-23T08:15:57;1.38;;;1.05;;
83182;SDS011;73077;49.898;16.450;2024-03-23T08:18:23;3.97;;;1.05;;
83182;SDS011;73077;49.898;16.450;2024-03-23T08:20:56;2.50;;;1.48;;
83182;SDS011;73077;49.898;16.450;2024-03-23T08:23:24;1.40;;;0.75;;
83182;SDS011;73077;49.898;16.450;2024-03-23T08:25:52;2.75;;;1.67;;
83182;SDS011;73077;49.898;16.450;2024-03-23T08:28:22;2.88;;;1.23;;
83182;SDS011;73077;49.898;16.450;2024-03-23T08:30:48;1.42;;;0.70;;
83182;SDS011;73077;49.898;16.450;2024-03-23T08:33:14;1.77;;;1.38;;
83182;SDS011;73077;49.898;16.450;2024-03-23T08:35:41;4.63;;;1.33;;
83182;SDS011;73077;49.898;16.450;2024-03-23T08:38:06;2.47;;;2.08;;
83182;SDS011;73077;49.898;16.450;2024-03-23T08:40:32;2.05;;;1.42;;
83182;SDS011;73077;49.898;16.450;2024-03-23T08:42:58;4.90;;;1.40;;
83182;SDS011;73077;49.898;16.450;2024-03-23T08:45:25;2.38;;;0.98;;
83182;SDS011;73077;49.898;16.450;2024-03-23T08:47:51;3.25;;;0.85;;
83182;SDS011;73077;49.898;16.450;2024-03-23T08:50:17;3.03;;;1.50;;
83182;SDS011;73077;49.898;16.450;2024-03-23T08:52:42;1.63;;;0.60;;
83182;SDS011;73077;49.898;16.450;2024-03-23T08:55:09;2.63;;;1.52;;
83182;SDS011;73077;49.898;16.450;2024-03-23T08:57:35;2.47;;;1.40;;
83182;SDS011;73077;49.898;16.450;2024-03-23T09:00:01;1.63;;;1.30;;
83182;SDS011;73077;49.898;16.450;2024-03-23T09:02:27;2.20;;;1.10;;
83182;SDS011;73077;49.898;16.450;2024-03-23T09:04:53;3.83;;;0.65;;
83182;SDS011;73077;49.898;16.450;2024-03-23T09:07:19;3.72;;;1.42;;
83182;SDS011;73077;49.898;16.450;2024-03-23T09:09:44;2.38;;;1.27;;
83182;SDS011;73077;49.898;16.450;2024-03-23T09:12:10;1.45;;;0.80;;
83182;SDS011;73077;49.898;16.450;2024-03-23T09:14:35;1.05;;;0.85;;
83182;SDS011;73077;49.898;16.450;2024-03-23T09:17:01;3.25;;;2.72;;
83182;SDS011;73077;49.898;16.450;2024-03-23T09:19:30;2.63;;;1.13;;
83182;SDS011;73077;49.898;16.450;2024-03-23T09:21:55;3.08;;;1.23;;
83182;SDS011;73077;49.898;16.450;2024-03-23T09:24:21;1.95;;;0.55;;
83182;SDS011;73077;49.898;16.450;2024-03-23T09:26:47;3.42;;;1.10;;
83182;SDS011;73077;49.898;16.450;2024-03-23T09:29:13;1.40;;;0.80;;
83182;SDS011;73077;49.898;16.450;2024-03-23T09:31:39;1.15;;;0.98;;
83182;SDS011;73077;49.898;16.450;2024-03-23T09:34:06;1.50;;;0.73;;
83182;SDS011;73077;49.898;16.450;2024-03-23T09:36:31;3.67;;;1.35;;
83182;SDS011;73077;49.898;16.450;2024-03-23T09:38:57;2.25;;;0.82;;
83182;SDS011;73077;49.898;16.450;2024-03-23T09:41:23;1.73;;;1.08;;
83182;SDS011;73077;49.898;16.450;2024-03-23T09:43:52;1.00;;;0.85;;
83182;SDS011;73077;49.898;16.450;2024-03-23T09:46:19;1.75;;;0.88;;
83182;SDS011;73077;49.898;16.450;2024-03-23T09:48:46;2.33;;;1.08;;
83182;SDS011;73077;49.898;16.450;2024-03-23T09:51:14;1.23;;;0.55;;
83182;SDS011;73077;49.898;16.450;2024-03-23T09:53:41;1.48;;;0.98;;
83182;SDS011;73077;49.898;16.450;2024-03-23T09:56:07;2.03;;;0.93;;
83182;SDS011;73077;49.898;16.450;2024-03-23T09:58:34;1.92;;;0.75;;
83182;SDS011;73077;49.898;16.450;2024-03-23T10:00:59;2.08;;;0.88;;
83182;SDS011;73077;49.898;16.450;2024-03-23T10:03:25;0.88;;;0.55;;
83182;SDS011;73077;49.898;16.450;2024-03-23T10:06:00;1.90;;;1.02;;
83182;SDS011;73077;49.898;16.450;2024-03-23T10:08:28;0.75;;;0.47;;
83182;SDS011;73077;49.898;16.450;2024-03-23T10:10:55;1.45;;;0.85;;
83182;SDS011;73077;49.898;16.450;2024-03-23T10:13:24;1.15;;;0.65;;
83182;SDS011;73077;49.898;16.450;2024-03-23T10:15:54;1.38;;;0.75;;
83182;SDS011;73077;49.898;16.450;2024-03-23T10:18:24;1.55;;;0.63;;
83182;SDS011;73077;49.898;16.450;2024-03-23T10:23:32;2.10;;;0.93;;
83182;SDS011;73077;49.898;16.450;2024-03-23T10:26:20;1.23;;;0.52;;
83182;SDS011;73077;49.898;16.450;2024-03-23T10:29:05;1.02;;;0.68;;
83182;SDS011;73077;49.898;16.450;2024-03-23T10:31:35;1.17;;;0.63;;
83182;SDS011;73077;49.898;16.450;2024-03-23T10:34:02;1.05;;;0.63;;
83182;SDS011;73077;49.898;16.450;2024-03-23T10:36:29;2.92;;;1.13;;
83182;SDS011;73077;49.898;16.450;2024-03-23T10:38:57;0.77;;;0.77;;
83182;SDS011;73077;49.898;16.450;2024-03-23T10:41:28;3.75;;;0.75;;
83182;SDS011;73077;49.898;16.450;2024-03-23T10:43:57;3.15;;;1.13;;
83182;SDS011;73077;49.898;16.450;2024-03-23T10:46:25;1.20;;;1.10;;
83182;SDS011;73077;49.898;16.450;2024-03-23T10:48:50;1.55;;;1.10;;
83182;SDS011;73077;49.898;16.450;2024-03-23T10:51:16;0.90;;;0.80;;
83182;SDS011;73077;49.898;16.450;2024-03-23T10:53:42;1.48;;;1.05;;
83182;SDS011;73077;49.898;16.450;2024-03-23T10:56:08;1.10;;;0.93;;
83182;SDS011;73077;49.898;16.450;2024-03-23T10:58:39;4.32;;;1.08;;
83182;SDS011;73077;49.898;16.450;2024-03-23T11:01:10;1.63;;;1.15;;
83182;SDS011;73077;49.898;16.450;2024-03-23T11:03:37;0.85;;;0.85;;
83182;SDS011;73077;49.898;16.450;2024-03-23T11:06:05;1.92;;;1.00;;
83182;SDS011;73077;49.898;16.450;2024-03-23T11:11:13;2.75;;;0.93;;
83182;SDS011;73077;49.898;16.450;2024-03-23T11:13:44;1.30;;;0.85;;
83182;SDS011;73077;49.898;16.450;2024-03-23T11:16:17;1.30;;;0.40;;
83182;SDS011;73077;49.898;16.450;2024-03-23T11:18:53;1.95;;;0.95;;
83182;SDS011;73077;49.898;16.450;2024-03-23T11:24:22;1.80;;;0.77;;
83182;SDS011;73077;49.898;16.450;2024-03-23T11:26:48;3.60;;;0.68;;
83182;SDS011;73077;49.898;16.450;2024-03-23T11:29:15;3.58;;;1.10;;
83182;SDS011;73077;49.898;16.450;2024-03-23T11:31:48;4.60;;;1.15;;
83182;SDS011;73077;49.898;16.450;2024-03-23T11:34:15;2.20;;;1.17;;
83182;SDS011;73077;49.898;16.450;2024-03-23T11:36:42;1.00;;;0.85;;
83182;SDS011;73077;49.898;16.450;2024-03-23T11:39:12;1.60;;;1.48;;
83182;SDS011;73077;49.898;16.450;2024-03-23T11:41:49;3.78;;;1.13;;
83182;SDS011;73077;49.898;16.450;2024-03-23T11:46:46;1.30;;;0.85;;
83182;SDS011;73077;49.898;16.450;2024-03-23T11:51:50;2.00;;;1.00;;
83182;SDS011;73077;49.898;16.450;2024-03-23T11:54:24;1.65;;;0.82;;
83182;SDS011;73077;49.898;16.450;2024-03-23T11:57:00;1.27;;;0.60;;
83182;SDS011;73077;49.898;16.450;2024-03-23T12:02:12;2.17;;;1.00;;
83182;SDS011;73077;49.898;16.450;2024-03-23T12:04:40;2.35;;;0.95;;
83182;SDS011;73077;49.898;16.450;2024-03-23T12:07:13;1.50;;;0.75;;
83182;SDS011;73077;49.898;16.450;2024-03-23T12:09:45;2.15;;;0.77;;
83182;SDS011;73077;49.898;16.450;2024-03-23T12:12:14;1.90;;;1.10;;
83182;SDS011;73077;49.898;16.450;2024-03-23T12:14:45;1.08;;;0.85;;
83182;SDS011;73077;49.898;16.450;2024-03-23T12:17:26;1.95;;;1.02;;
83182;SDS011;73077;49.898;16.450;2024-03-23T12:19:51;3.38;;;0.98;;
83182;SDS011;73077;49.898;16.450;2024-03-23T12:22:21;1.80;;;0.63;;
83182;SDS011;73077;49.898;16.450;2024-03-23T12:24:47;1.40;;;1.30;;
83182;SDS011;73077;49.898;16.450;2024-03-23T12:27:13;0.85;;;0.47;;
83182;SDS011;73077;49.898;16.450;2024-03-23T12:29:40;4.63;;;0.77;;
83182;SDS011;73077;49.898;16.450;2024-03-23T12:32:11;2.65;;;0.77;;
83182;SDS011;73077;49.898;16.450;2024-03-23T12:34:37;4.15;;;1.20;;
83182;SDS011;73077;49.898;16.450;2024-03-23T12:37:03;1.80;;;0.75;;
83182;SDS011;73077;49.898;16.450;2024-03-23T12:39:29;1.65;;;1.08;;
83182;SDS011;73077;49.898;16.450;2024-03-23T12:41:56;4.28;;;0.98;;
83182;SDS011;73077;49.898;16.450;2024-03-23T12:44:22;1.75;;;0.73;;
83182;SDS011;73077;49.898;16.450;2024-03-23T12:46:49;2.88;;;0.95;;
83182;SDS011;73077;49.898;16.450;2024-03-23T12:49:14;1.13;;;0.68;;
83182;SDS011;73077;49.898;16.450;2024-03-23T12:51:45;2.03;;;1.25;;
83182;SDS011;73077;49.898;16.450;2024-03-23T12:54:19;1.70;;;0.95;;
83182;SDS011;73077;49.898;16.450;2024-03-23T12:56:45;0.90;;;0.88;;
83182;SDS011;73077;49.898;16.450;2024-03-23T12:59:11;1.08;;;0.95;;
83182;SDS011;73077;49.898;16.450;2024-03-23T13:01:38;1.60;;;0.82;;
83182;SDS011;73077;49.898;16.450;2024-03-23T13:04:04;2.00;;;1.13;;
83182;SDS011;73077;49.898;16.450;2024-03-23T13:06:29;5.95;;;1.30;;
83182;SDS011;73077;49.898;16.450;2024-03-23T13:09:00;3.33;;;0.98;;
83182;SDS011;73077;49.898;16.450;2024-03-23T13:13:54;0.82;;;0.77;;
83182;SDS011;73077;49.898;16.450;2024-03-23T13:16:19;1.40;;;0.82;;
83182;SDS011;73077;49.898;16.450;2024-03-23T13:18:45;1.60;;;1.02;;
83182;SDS011;73077;49.898;16.450;2024-03-23T13:21:11;4.57;;;0.65;;
83182;SDS011;73077;49.898;16.450;2024-03-23T13:23:36;2.00;;;1.02;;
83182;SDS011;73077;49.898;16.450;2024-03-23T13:26:04;1.63;;;0.70;;
83182;SDS011;73077;49.898;16.450;2024-03-23T13:28:29;1.30;;;1.13;;
83182;SDS011;73077;49.898;16.450;2024-03-23T13:30:55;1.95;;;0.85;;
83182;SDS011;73077;49.898;16.450;2024-03-23T13:33:23;0.73;;;0.73;;
83182;SDS011;73077;49.898;16.450;2024-03-23T13:35:53;1.65;;;0.80;;
83182;SDS011;73077;49.898;16.450;2024-03-23T13:38:21;1.42;;;1.27;;
83182;SDS011;73077;49.898;16.450;2024-03-23T13:43:24;0.57;;;0.57;;
83182;SDS011;73077;49.898;16.450;2024-03-23T13:46:01;0.80;;;0.80;;
83182;SDS011;73077;49.898;16.450;2024-03-23T13:48:27;1.02;;;0.75;;
83182;SDS011;73077;49.898;16.450;2024-03-23T13:51:01;2.72;;;0.98;;
83182;SDS011;73077;49.898;16.450;2024-03-23T13:53:29;2.65;;;1.45;;
83182;SDS011;73077;49.898;16.450;2024-03-23T13:55:56;0.85;;;0.32;;
83182;SDS011;73077;49.898;16.450;2024-03-23T13:58:21;2.55;;;1.15;;
83182;SDS011;73077;49.898;16.450;2024-03-23T14:00:50;1.40;;;0.93;;
83182;SDS011;73077;49.898;16.450;2024-03-23T14:03:16;2.85;;;0.95;;
83182;SDS011;73077;49.898;16.450;2024-03-23T14:05:43;2.05;;;0.60;;
83182;SDS011;73077;49.898;16.450;2024-03-23T14:08:10;0.68;;;0.40;;
83182;SDS011;73077;49.898;16.450;2024-03-23T14:10:40;1.70;;;0.98;;
83182;SDS011;73077;49.898;16.450;2024-03-23T14:13:06;1.80;;;1.27;;
83182;SDS011;73077;49.898;16.450;2024-03-23T14:15:32;2.33;;;0.55;;
83182;SDS011;73077;49.898;16.450;2024-03-23T14:17:58;2.53;;;0.52;;
83182;SDS011;73077;49.898;16.450;2024-03-23T14:20:24;1.05;;;0.85;;
83182;SDS011;73077;49.898;16.450;2024-03-23T14:22:50;1.45;;;0.55;;
83182;SDS011;73077;49.898;16.450;2024-03-23T14:25:17;2.15;;;1.10;;
83182;SDS011;73077;49.898;16.450;2024-03-23T14:27:45;1.02;;;0.93;;
83182;SDS011;73077;49.898;16.450;2024-03-23T14:32:38;0.52;;;0.43;;
83182;SDS011;73077;49.898;16.450;2024-03-23T14:35:04;2.40;;;1.10;;
83182;SDS011;73077;49.898;16.450;2024-03-23T14:37:31;1.05;;;0.77;;
83182;SDS011;73077;49.898;16.450;2024-03-23T14:39:56;1.58;;;0.80;;
83182;SDS011;73077;49.898;16.450;2024-03-23T14:42:22;1.67;;;0.88;;
83182;SDS011;73077;49.898;16.450;2024-03-23T14:44:49;0.45;;;0.43;;
83182;SDS011;73077;49.898;16.450;2024-03-23T14:47:15;1.35;;;0.75;;
83182;SDS011;73077;49.898;16.450;2024-03-23T14:49:44;1.13;;;0.52;;
83182;SDS011;73077;49.898;16.450;2024-03-23T14:52:13;1.25;;;0.65;;
83182;SDS011;73077;49.898;16.450;2024-03-23T14:54:39;2.15;;;1.25;;
83182;SDS011;73077;49.898;16.450;2024-03-23T14:57:05;0.63;;;0.63;;
83182;SDS011;73077;49.898;16.450;2024-03-23T14:59:34;0.77;;;0.60;;
83182;SDS011;73077;49.898;16.450;2024-03-23T15:02:00;1.08;;;0.98;;
83182;SDS011;73077;49.898;16.450;2024-03-23T15:04:26;0.52;;;0.52;;
83182;SDS011;73077;49.898;16.450;2024-03-23T15:06:52;0.88;;;0.63;;
83182;SDS011;73077;49.898;16.450;2024-03-23T15:09:17;0.85;;;0.77;;
83182;SDS011;73077;49.898;16.450;2024-03-23T15:11:43;0.50;;;0.15;;
83182;SDS011;73077;49.898;16.450;2024-03-23T15:14:09;1.08;;;0.93;;
83182;SDS011;73077;49.898;16.450;2024-03-23T15:16:38;1.05;;;0.70;;
83182;SDS011;73077;49.898;16.450;2024-03-23T15:19:05;3.63;;;1.08;;
83182;SDS011;73077;49.898;16.450;2024-03-23T15:21:33;1.20;;;0.75;;
83182;SDS011;73077;49.898;16.450;2024-03-23T15:24:02;1.05;;;0.47;;
83182;SDS011;73077;49.898;16.450;2024-03-23T15:26:32;0.75;;;0.47;;
83182;SDS011;73077;49.898;16.450;2024-03-23T15:28:59;0.40;;;0.35;;
83182;SDS011;73077;49.898;16.450;2024-03-23T15:31:26;1.33;;;0.73;;
83182;SDS011;73077;49.898;16.450;2024-03-23T15:33:57;3.03;;;1.00;;
83182;SDS011;73077;49.898;16.450;2024-03-23T15:36:24;1.00;;;0.93;;
83182;SDS011;73077;49.898;16.450;2024-03-23T15:38:52;1.13;;;0.77;;
83182;SDS011;73077;49.898;16.450;2024-03-23T15:41:22;0.73;;;0.73;;
83182;SDS011;73077;49.898;16.450;2024-03-23T15:43:54;2.75;;;1.35;;
83182;SDS011;73077;49.898;16.450;2024-03-23T15:46:22;1.13;;;0.85;;
83182;SDS011;73077;49.898;16.450;2024-03-23T15:48:50;3.88;;;1.00;;
83182;SDS011;73077;49.898;16.450;2024-03-23T15:51:20;0.90;;;0.38;;
83182;SDS011;73077;49.898;16.450;2024-03-23T15:53:48;2.45;;;0.35;;